Time;durP1;ratioP1;P1;durP2;ratioP2;P2;SDS_P1;SDS_P2;PMS_P1;PMS_P2;Temp;Humidity;BMP_temperature;BMP_pressure;BME280_temperature;BME280_humidity;BME280_pressure;Samples;Min_cycle;Max_cycle;Signal;HPM_P1;HPM_P2
2022/01/05 00:00:52;;;;;;;1.42;1.33;;;;;;;-10.98;87.79;98544.25;5056142;28;20077;-69
2022/01/05 00:03:18;;;;;;;1.95;1.63;;;;;;;-11.10;87.42;98542.59;5055845;28;20041;-68
2022/01/05 00:05:45;;;;;;;1.67;1.42;;;;;;;-11.11;87.54;98537.59;5056007;28;20060;-64
2022/01/05 00:08:14;;;;;;;1.70;1.60;;;;;;;-11.17;87.33;98538.47;5056100;28;20052;-69
2022/01/05 00:10:41;;;;;;;3.67;1.58;;;;;;;-11.08;87.51;98535.09;5055912;28;20053;-67
2022/01/05 00:13:08;;;;;;;2.40;1.73;;;;;;;-11.11;88.26;98537.59;5055723;28;20049;-68
2022/01/05 00:15:35;;;;;;;1.88;1.23;;;;;;;-11.05;87.37;98530.88;5055958;28;20068;-67
2022/01/05 00:18:02;;;;;;;2.03;1.45;;;;;;;-11.01;87.66;98519.16;5055800;28;20106;-64
2022/01/05 00:20:30;;;;;;;2.58;1.27;;;;;;;-11.04;87.26;98525.03;5055782;28;20045;-70
2022/01/05 00:22:57;;;;;;;2.33;1.60;;;;;;;-11.12;87.88;98518.34;5055742;28;20049;-65
2022/01/05 00:25:26;;;;;;;1.30;1.20;;;;;;;-11.12;87.16;98516.69;5055554;28;20060;-69
2022/01/05 00:27:53;;;;;;;1.17;1.08;;;;;;;-11.06;87.11;98513.31;5055637;28;20059;-68
2022/01/05 00:30:20;;;;;;;1.55;1.35;;;;;;;-11.16;87.88;98506.66;5055459;28;20041;-69
2022/01/05 00:32:46;;;;;;;1.80;1.50;;;;;;;-11.07;87.88;98502.44;5055495;28;20056;-65
2022/01/05 00:35:13;;;;;;;2.40;1.77;;;;;;;-11.13;87.06;98512.50;5055490;28;20052;-69
2022/01/05 00:37:40;;;;;;;1.92;1.70;;;;;;;-11.27;88.11;98515.06;5055120;28;20484;-68
2022/01/05 00:40:08;;;;;;;2.45;1.92;;;;;;;-11.25;88.06;98513.38;5055343;28;20403;-65
2022/01/05 00:42:36;;;;;;;2.08;1.30;;;;;;;-11.11;88.14;98513.31;5055485;28;20059;-69
2022/01/05 00:45:05;;;;;;;1.40;1.30;;;;;;;-11.13;87.86;98512.50;5055282;28;20083;-69
2022/01/05 00:47:32;;;;;;;1.55;1.40;;;;;;;-11.11;87.69;98515.00;5055180;28;20515;-69
2022/01/05 00:49:59;;;;;;;1.83;1.30;;;;;;;-11.18;88.36;98516.69;5055083;28;20049;-64
2022/01/05 00:52:26;;;;;;;2.67;2.03;;;;;;;-11.21;88.33;98510.00;5054997;28;20041;-66
2022/01/05 00:54:53;;;;;;;1.70;1.60;;;;;;;-11.12;88.25;98506.66;5055015;28;20128;-64
2022/01/05 00:57:19;;;;;;;3.65;1.70;;;;;;;-11.12;88.69;98503.28;5055131;28;20483;-65
2022/01/05 00:59:48;;;;;;;1.90;1.77;;;;;;;-10.96;87.83;98503.22;5055104;28;20040;-64
2022/01/05 01:02:14;;;;;;;1.83;1.73;;;;;;;-11.03;88.51;98505.75;5054711;28;20056;-66
2022/01/05 01:04:41;;;;;;;1.48;1.38;;;;;;;-11.15;88.95;98506.63;5054825;28;20048;-64
2022/01/05 01:07:08;;;;;;;2.40;1.40;;;;;;;-11.03;88.64;98516.63;5054862;28;20052;-69
2022/01/05 01:09:35;;;;;;;5.40;2.28;;;;;;;-11.15;89.23;98498.28;5054399;28;20064;-65
2022/01/05 01:12:02;;;;;;;2.00;1.65;;;;;;;-10.93;87.68;98502.38;5054812;28;20056;-65
2022/01/05 01:14:29;;;;;;;2.72;1.83;;;;;;;-10.99;87.82;98497.38;5054697;28;20049;-64
2022/01/05 01:16:57;;;;;;;1.58;1.38;;;;;;;-11.03;88.00;98499.06;5054713;28;20049;-65
2022/01/05 01:19:24;;;;;;;4.28;1.67;;;;;;;-11.03;88.46;98509.09;5054570;28;20045;-69
2022/01/05 01:21:51;;;;;;;5.43;1.65;;;;;;;-10.97;87.85;98500.69;5054780;28;20068;-68
2022/01/05 01:24:18;;;;;;;3.35;2.00;;;;;;;-11.02;87.85;98502.41;5054640;28;20405;-68
2022/01/05 01:26:44;;;;;;;2.22;1.50;;;;;;;-11.12;88.80;98508.31;5054801;28;20044;-69
2022/01/05 01:29:11;;;;;;;2.47;2.03;;;;;;;-11.10;88.58;98516.66;5054533;28;20056;-69
2022/01/05 01:31:38;;;;;;;1.88;1.40;;;;;;;-10.88;87.75;98510.72;5054186;28;20045;-69
2022/01/05 01:34:07;;;;;;;1.73;1.63;;;;;;;-11.07;88.14;98514.13;5054368;28;20056;-69
2022/01/05 01:36:33;;;;;;;2.63;1.60;;;;;;;-10.92;88.66;98499.00;5054232;28;20500;-68
2022/01/05 01:39:00;;;;;;;2.38;1.40;;;;;;;-10.86;88.34;98504.00;5054053;28;20411;-69
2022/01/05 01:41:27;;;;;;;2.28;1.65;;;;;;;-10.94;87.87;98502.38;5054121;28;20056;-68
2022/01/05 01:43:54;;;;;;;1.70;1.52;;;;;;;-11.01;88.59;98506.59;5052273;22;20049;-75
2022/01/05 01:46:22;;;;;;;1.98;1.77;;;;;;;-10.82;87.22;98513.19;5034246;28;20045;-76
2022/01/05 01:48:49;;;;;;;5.53;1.73;;;;;;;-10.98;87.65;98499.03;5034396;28;20052;-73
2022/01/05 01:51:18;;;;;;;2.75;1.80;;;;;;;-11.09;88.49;98499.09;5034278;28;20049;-74
2022/01/05 01:53:45;;;;;;;6.05;1.80;;;;;;;-10.99;88.64;98495.69;5033936;28;20069;-74
2022/01/05 01:56:13;;;;;;;2.70;1.90;;;;;;;-11.00;88.22;98494.00;5034185;28;20061;-73
2022/01/05 01:58:41;;;;;;;5.07;2.05;;;;;;;-11.05;88.64;98487.34;5034446;28;20045;-74
2022/01/05 02:01:07;;;;;;;1.52;1.42;;;;;;;-10.97;89.17;98485.63;5033989;28;20053;-73
2022/01/05 02:03:34;;;;;;;1.58;1.48;;;;;;;-11.13;88.59;98482.34;5034120;28;20057;-73
2022/01/05 02:06:01;;;;;;;9.10;1.98;;;;;;;-10.93;88.52;98486.47;5033943;28;20045;-73
2022/01/05 02:08:30;;;;;;;2.70;2.03;;;;;;;-11.02;88.36;98488.19;5033865;28;20128;-73
2022/01/05 02:10:57;;;;;;;2.35;1.73;;;;;;;-10.94;87.96;98485.63;5033694;28;20075;-75
2022/01/05 02:13:24;;;;;;;2.17;1.40;;;;;;;-11.08;88.95;98479.84;5033845;28;20049;-77
2022/01/05 02:15:51;;;;;;;2.72;1.55;;;;;;;-10.99;88.72;98487.34;5033598;28;20057;-76
2022/01/05 02:21:05;;;;;;;2.38;2.17;;;;;;;-11.23;90.49;98479.03;5033016;28;20051;-77
2022/01/05 02:23:32;;;;;;;2.53;1.45;;;;;;;-11.04;89.43;98484.00;5032632;28;20045;-77
2022/01/05 02:25:59;;;;;;;4.78;1.77;;;;;;;-11.10;89.91;98487.34;5033479;28;20057;-76
2022/01/05 02:28:26;;;;;;;4.68;1.88;;;;;;;-11.05;89.36;98477.31;5033152;28;20136;-74
2022/01/05 02:30:53;;;;;;;1.80;1.67;;;;;;;-10.96;89.20;98479.78;5033326;28;20076;-74
2022/01/05 02:33:20;;;;;;;2.92;1.50;;;;;;;-11.05;89.46;98485.66;5033235;28;20052;-76
2022/01/05 02:35:47;;;;;;;2.47;1.63;;;;;;;-11.11;90.67;98485.69;5033071;28;20053;-74
2022/01/05 02:38:19;;;;;;;2.08;1.73;;;;;;;-10.92;89.61;98483.09;5033209;28;20049;-74
2022/01/05 02:40:46;;;;;;;1.33;1.17;;;;;;;-10.94;89.55;98483.13;5033351;28;20046;-74
2022/01/05 02:43:13;;;;;;;2.35;1.80;;;;;;;-10.92;89.98;98483.09;5033394;28;20049;-77
2022/01/05 02:45:40;;;;;;;2.47;1.80;;;;;;;-11.12;90.33;98478.16;5033287;28;20045;-76
2022/01/05 02:48:07;;;;;;;1.38;1.27;;;;;;;-11.13;91.08;98474.00;5033108;28;20056;-76
2022/01/05 02:50:35;;;;;;;1.45;1.35;;;;;;;-10.93;90.04;98479.75;5032994;28;20055;-74
2022/01/05 02:53:02;;;;;;;1.83;1.60;;;;;;;-11.26;91.29;98483.25;5032773;28;20050;-77
2022/01/05 02:55:30;;;;;;;3.50;2.13;;;;;;;-11.26;91.90;98475.72;5033170;28;20068;-77
2022/01/05 02:57:57;;;;;;;2.72;1.95;;;;;;;-11.12;91.14;98475.66;5033023;28;20053;-74
2022/01/05 03:00:24;;;;;;;1.70;1.60;;;;;;;-10.89;90.12;98481.44;5033046;28;20046;-74
2022/01/05 03:02:51;;;;;;;1.13;1.00;;;;;;;-10.91;90.53;98483.09;5032637;28;20052;-76
2022/01/05 03:05:19;;;;;;;1.20;1.10;;;;;;;-10.90;90.27;98484.75;5032629;28;20052;-74
2022/01/05 03:07:46;;;;;;;3.78;1.98;;;;;;;-11.00;90.91;98483.13;5032885;28;20060;-76
2022/01/05 03:10:14;;;;;;;;;;;;;;;-10.91;90.89;98488.13;5033156;28;20045;-78
2022/01/05 03:12:45;;;;;;;1.98;1.63;;;;;;;-11.02;91.10;98475.63;5032712;28;19921;-75
2022/01/05 03:15:13;;;;;;;5.63;1.95;;;;;;;-11.15;91.35;98475.66;5032688;28;20050;-77
2022/01/05 03:17:40;;;;;;;2.03;1.70;;;;;;;-11.12;91.96;98479.03;5032597;28;20049;-76
2022/01/05 03:20:08;;;;;;;2.33;1.92;;;;;;;-11.15;92.17;98470.66;5032455;28;20060;-77
2022/01/05 03:22:36;;;;;;;4.38;2.03;;;;;;;-11.16;92.19;98476.53;5032444;28;20049;-76
2022/01/05 03:25:03;;;;;;;2.47;1.33;;;;;;;-10.94;91.65;98475.59;5032617;28;20049;-77
2022/01/05 03:27:30;;;;;;;;;;;;;;;-10.99;91.93;98479.81;5032832;28;20052;-76
2022/01/05 03:29:58;;;;;;;2.83;1.95;;;;;;;-11.09;91.64;98475.66;5032720;28;19928;-74
2022/01/05 03:32:30;;;;;;;2.70;2.03;;;;;;;-11.13;92.25;98468.97;5032174;28;20061;-77
2022/01/05 03:34:57;;;;;;;3.08;2.25;;;;;;;-11.14;92.04;98469.84;5032553;28;20046;-78
2022/01/05 03:37:24;;;;;;;2.30;1.80;;;;;;;-11.01;91.60;98462.22;5032307;28;20048;-78
2022/01/05 03:39:50;;;;;;;2.38;1.45;;;;;;;-11.03;91.67;98470.59;5032187;28;20510;-78
2022/01/05 03:42:29;;;;;;;;;;;;;;;;;;;;;
2022/01/05 03:44:59;;;;;;;2.17;1.92;;;;;;;-11.06;91.42;98470.63;5049024;28;20102;-71
2022/01/05 03:47:26;;;;;;;6.75;2.60;;;;;;;-11.04;91.92;98468.94;5051876;28;20072;-68
2022/01/05 03:49:52;;;;;;;1.80;1.70;;;;;;;-11.11;92.22;98462.28;5051922;28;20052;-68
2022/01/05 03:52:19;;;;;;;1.15;1.13;;;;;;;-10.99;92.04;98469.75;5051944;28;20491;-68
2022/01/05 03:54:46;;;;;;;1.67;1.58;;;;;;;-10.86;91.45;98461.31;5052063;28;20045;-68
2022/01/05 03:57:13;;;;;;;4.30;1.92;;;;;;;-10.98;91.77;98457.16;5052249;28;20049;-70
2022/01/05 03:59:40;;;;;;;2.10;1.90;;;;;;;-10.89;91.64;98458.81;5051923;28;20061;-68
2022/01/05 04:02:08;;;;;;;1.90;1.75;;;;;;;-11.07;91.94;98461.41;5051926;28;20044;-68
2022/01/05 04:04:35;;;;;;;2.30;2.03;;;;;;;-11.13;92.37;98468.97;5051954;28;20072;-68
2022/01/05 04:07:02;;;;;;;1.90;1.67;;;;;;;-11.08;92.86;98457.22;5051974;28;20045;-67
2022/01/05 04:09:29;;;;;;;2.28;1.83;;;;;;;-11.08;92.55;98457.22;5051994;28;20052;-68
2022/01/05 04:11:56;;;;;;;3.60;1.90;;;;;;;-10.90;91.38;98456.31;5051767;28;20122;-71
2022/01/05 04:14:23;;;;;;;2.05;1.85;;;;;;;-10.93;91.28;98442.09;5051602;28;20049;-67
2022/01/05 04:16:50;;;;;;;2.75;1.77;;;;;;;-11.02;92.01;98432.06;5052135;28;20057;-68
2022/01/05 04:19:18;;;;;;;;;;;;;;;-11.11;92.47;98427.13;5052403;28;20040;-65
2022/01/05 04:21:45;;;;;;;1.60;1.50;;;;;;;-11.03;92.30;98422.88;5052018;28;19921;-69
2022/01/05 04:24:12;;;;;;;3.45;2.28;;;;;;;-11.00;92.04;98427.88;5051901;28;20064;-70
2022/01/05 04:26:39;;;;;;;3.78;2.00;;;;;;;-11.04;92.58;98438.81;5051710;28;20044;-68
2022/01/05 04:29:06;;;;;;;1.90;1.63;;;;;;;-10.96;92.05;98442.09;5051625;28;20049;-68
2022/01/05 04:31:33;;;;;;;0.98;0.98;;;;;;;-10.83;92.04;98453.75;5051797;28;20045;-67
2022/01/05 04:34:00;;;;;;;5.97;2.20;;;;;;;-11.00;92.40;98451.31;5051556;28;20080;-69
2022/01/05 04:36:29;;;;;;;4.10;2.20;;;;;;;-11.11;92.53;98449.72;5051640;28;20045;-70
2022/01/05 04:38:56;;;;;;;2.17;1.73;;;;;;;-10.91;92.05;98452.13;5051474;28;20049;-69
2022/01/05 04:41:24;;;;;;;4.88;2.10;;;;;;;-11.01;92.64;98444.63;5051932;28;20106;-67
2022/01/05 04:43:52;;;;;;;3.65;2.72;;;;;;;-10.92;92.12;98456.28;5052030;28;20114;-70
2022/01/05 04:46:19;;;;;;;4.68;2.78;;;;;;;-10.98;92.81;98461.38;5054323;28;20053;-69
2022/01/05 04:48:46;;;;;;;3.17;2.60;;;;;;;-10.90;91.81;98449.59;5055445;28;20086;-70
2022/01/05 04:51:13;;;;;;;1.70;1.58;;;;;;;-10.70;91.79;98454.50;5055152;28;20044;-68
2022/01/05 04:53:41;;;;;;;4.88;2.38;;;;;;;-10.67;91.14;98454.47;5054954;28;20049;-70
2022/01/05 04:56:08;;;;;;;6.85;1.90;;;;;;;-10.86;91.40;98456.28;5055439;28;20095;-69
2022/01/05 04:58:35;;;;;;;5.38;2.33;;;;;;;-10.99;92.16;98447.97;5055211;28;20067;-69
2022/01/05 05:01:02;;;;;;;5.28;2.00;;;;;;;-10.96;92.07;98452.16;5055264;28;20045;-69
2022/01/05 05:03:29;;;;;;;3.85;2.60;;;;;;;-10.90;92.54;98457.13;5054812;28;20049;-69
2022/01/05 05:05:56;;;;;;;12.18;2.67;;;;;;;-10.71;91.49;98462.03;5054985;28;20045;-69
2022/01/05 05:08:23;;;;;;;4.88;2.58;;;;;;;-10.97;92.47;98458.00;5055295;28;20056;-69
2022/01/05 05:10:51;;;;;;;5.05;2.40;;;;;;;-10.93;92.43;98446.28;5055200;28;20060;-69
2022/01/05 05:13:18;;;;;;;6.20;2.13;;;;;;;-11.01;92.51;98449.66;5054845;28;20045;-69
2022/01/05 05:15:45;;;;;;;1.75;1.55;;;;;;;-10.96;92.35;98437.91;5054698;28;20545;-68
2022/01/05 05:18:12;;;;;;;5.75;2.38;;;;;;;-10.87;91.82;98444.53;5054602;28;20411;-69
2022/01/05 05:20:40;;;;;;;2.03;1.83;;;;;;;-10.71;92.30;98444.44;5054433;28;20041;-69
2022/01/05 05:23:07;;;;;;;5.25;2.08;;;;;;;-10.86;91.85;98451.25;5054342;28;20140;-68
2022/01/05 05:25:34;;;;;;;3.60;2.28;;;;;;;-10.79;91.53;98454.56;5054436;28;20053;-69
2022/01/05 05:28:02;;;;;;;2.47;2.03;;;;;;;-10.89;92.20;98452.94;5054342;28;20045;-69
2022/01/05 05:30:29;;;;;;;4.68;2.30;;;;;;;-11.03;93.15;98453.84;5054534;28;20049;-69
2022/01/05 05:32:57;;;;;;;3.10;2.25;;;;;;;-10.97;92.77;98455.50;5054519;28;20057;-69
2022/01/05 05:35:27;;;;;;;5.05;2.40;;;;;;;-10.72;91.53;98456.19;5054614;28;20045;-69
2022/01/05 05:37:55;;;;;;;7.03;2.35;;;;;;;-10.62;91.37;98456.97;5054394;28;20567;-68
2022/01/05 05:40:22;;;;;;;7.05;3.13;;;;;;;-10.79;91.74;98457.06;5054321;28;20055;-69
2022/01/05 05:42:50;;;;;;;5.80;2.70;;;;;;;-10.83;92.20;98456.25;5064173;22;20048;-74
2022/01/05 05:45:18;;;;;;;;;;;;;;;-10.82;92.29;98459.59;5034804;28;20049;-73
2022/01/05 05:47:45;;;;;;;7.03;2.33;;;;;;;-10.77;91.53;98457.91;5034128;28;19928;-75
2022/01/05 05:50:12;;;;;;;3.13;1.98;;;;;;;-10.83;91.82;98460.47;5034076;28;20402;-73
2022/01/05 05:52:39;;;;;;;4.50;2.42;;;;;;;-10.88;92.30;98457.13;5034183;28;20049;-73
2022/01/05 05:55:07;;;;;;;5.07;2.15;;;;;;;-10.96;92.40;98457.19;5034126;28;20045;-76
2022/01/05 05:57:34;;;;;;;6.13;2.42;;;;;;;-11.03;93.47;98456.34;5034007;28;20411;-76
2022/01/05 06:00:00;;;;;;;6.60;2.70;;;;;;;-10.97;93.06;98458.00;5034093;28;20057;-76
2022/01/05 06:02:29;;;;;;;5.45;2.28;;;;;;;-10.99;93.00;98454.69;5033866;28;20057;-76
2022/01/05 06:04:55;;;;;;;4.38;2.42;;;;;;;-10.69;91.89;98451.13;5033848;28;20041;-75
2022/01/05 06:07:22;;;;;;;4.18;2.50;;;;;;;-10.87;92.22;98457.09;5034235;28;20420;-73
2022/01/05 06:09:49;;;;;;;8.80;2.50;;;;;;;-10.72;91.52;98463.72;5034145;28;20205;-76
2022/01/05 06:12:16;;;;;;;2.47;1.75;;;;;;;-10.67;91.65;98468.72;5033824;28;20046;-75
2022/01/05 06:14:43;;;;;;;3.58;2.13;;;;;;;-10.62;91.28;98467.84;5033679;28;20064;-73
2022/01/05 06:17:10;;;;;;;9.20;2.30;;;;;;;-10.56;90.99;98472.00;5033928;28;20055;-73
2022/01/05 06:19:38;;;;;;;5.05;2.33;;;;;;;-10.43;90.57;98472.75;5034181;28;20057;-73
2022/01/05 06:22:05;;;;;;;3.13;2.13;;;;;;;-10.57;90.69;98470.34;5033546;28;20050;-76
2022/01/05 06:24:34;;;;;;;4.30;2.83;;;;;;;-10.70;91.30;98467.06;5033420;28;20049;-73
2022/01/05 06:27:01;;;;;;;4.57;2.10;;;;;;;-10.66;90.63;98457.81;5033483;28;20041;-73
2022/01/05 06:29:28;;;;;;;5.60;2.90;;;;;;;-10.63;90.78;98472.91;5033881;28;20499;-76
2022/01/05 06:31:55;;;;;;;5.28;2.67;;;;;;;-10.76;91.81;98470.47;5033648;28;20411;-77
2022/01/05 06:34:22;;;;;;;;;;;;;;;-10.80;92.76;98463.78;5033886;28;20050;-76
2022/01/05 06:36:50;;;;;;;2.85;2.55;;;;;;;-10.74;92.12;98460.38;5033344;28;19921;-76
2022/01/05 06:39:17;;;;;;;2.50;2.20;;;;;;;-10.48;91.23;98457.72;5033329;28;20049;-76
2022/01/05 06:41:44;;;;;;;7.47;3.28;;;;;;;-10.66;91.24;98461.19;5033172;28;20056;-76
2022/01/05 06:44:11;;;;;;;3.63;2.30;;;;;;;-10.81;92.37;98454.56;5045440;22;20068;-65
2022/01/05 06:46:38;;;;;;;5.72;3.03;;;;;;;-10.88;92.55;98444.56;5033241;28;20056;-67
2022/01/05 06:49:05;;;;;;;4.10;2.55;;;;;;;-10.83;92.84;98447.91;5033062;28;20045;-65
2022/01/05 06:51:31;;;;;;;2.58;1.83;;;;;;;-10.76;92.92;98440.31;5033281;28;20056;-67
2022/01/05 06:54:00;;;;;;;8.60;2.75;;;;;;;-10.59;91.87;98449.41;5032921;28;20053;-68
2022/01/05 06:56:27;;;;;;;3.22;2.28;;;;;;;-10.56;91.52;98454.41;5033299;28;20052;-69
2022/01/05 06:58:53;;;;;;;9.57;2.25;;;;;;;-10.63;91.53;98466.19;5032922;28;20072;-68
2022/01/05 07:01:21;;;;;;;5.63;2.67;;;;;;;-10.58;92.00;98464.47;5033006;28;20064;-69
2022/01/05 07:03:48;;;;;;;4.75;2.78;;;;;;;-10.46;91.42;98465.22;5032633;28;20455;-69
2022/01/05 07:06:14;;;;;;;8.68;2.72;;;;;;;-10.55;90.83;98469.47;5032779;28;20049;-68
2022/01/05 07:08:41;;;;;;;4.97;2.17;;;;;;;-10.46;91.43;98472.78;5032198;28;20415;-67
2022/01/05 07:11:10;;;;;;;3.22;2.45;;;;;;;-10.46;91.18;98472.78;5032754;28;20053;-68
2022/01/05 07:13:36;;;;;;;8.35;2.65;;;;;;;-10.67;91.75;98467.03;5032480;28;20507;-69
2022/01/05 07:16:04;;;;;;;6.82;2.88;;;;;;;-10.71;92.15;98472.09;5032715;28;20144;-66
2022/01/05 07:18:30;;;;;;;4.53;2.60;;;;;;;-10.65;91.73;98477.09;5032847;28;20045;-67
2022/01/05 07:20:57;;;;;;;2.20;1.90;;;;;;;-10.55;91.46;98473.69;5032802;28;20068;-64
2022/01/05 07:23:24;;;;;;;3.72;2.70;;;;;;;-10.59;91.25;98465.31;5032660;28;20092;-69
2022/01/05 07:25:51;;;;;;;3.70;2.40;;;;;;;-10.69;91.86;98455.34;5032410;28;20048;-65
2022/01/05 07:28:19;;;;;;;3.50;2.45;;;;;;;-10.69;92.22;98457.84;5032355;28;20395;-68
2022/01/05 07:30:46;;;;;;;3.35;2.28;;;;;;;-10.71;92.74;98460.38;5032208;28;20046;-69
2022/01/05 07:33:13;;;;;;;3.53;2.00;;;;;;;-10.69;92.72;98462.88;5032354;28;20101;-69
2022/01/05 07:35:40;;;;;;;5.05;2.40;;;;;;;-10.62;91.79;98474.56;5032293;28;20549;-68
2022/01/05 07:38:07;;;;;;;4.65;1.80;;;;;;;-10.66;92.62;98468.72;5032287;28;20057;-69
2022/01/05 07:40:34;;;;;;;4.28;2.70;;;;;;;-10.70;92.38;98466.25;5032388;28;20103;-65
2022/01/05 07:43:03;;;;;;;7.28;2.50;;;;;;;-10.77;93.08;98461.22;5032672;28;20049;-69
2022/01/05 07:45:31;;;;;;;3.83;2.03;;;;;;;-10.47;92.90;98458.56;5032718;28;20045;-65
2022/01/05 07:47:58;;;;;;;4.68;2.10;;;;;;;-10.52;91.89;98471.97;5032196;28;20046;-65
2022/01/05 07:50:25;;;;;;;6.72;2.67;;;;;;;-10.45;91.47;98475.28;5031923;28;20638;-65
2022/01/05 07:52:52;;;;;;;4.10;2.53;;;;;;;-10.45;91.71;98477.81;5031857;28;20054;-65
2022/01/05 07:55:19;;;;;;;3.67;2.05;;;;;;;-10.30;91.11;98481.84;5032105;28;20431;-64
2022/01/05 07:57:46;;;;;;;4.38;2.78;;;;;;;-10.58;91.71;98481.25;5032088;28;20054;-68
2022/01/05 08:00:14;;;;;;;3.35;2.35;;;;;;;-10.50;92.15;98476.16;5032002;28;20060;-65
2022/01/05 08:02:42;;;;;;;4.15;2.22;;;;;;;-10.43;92.34;98476.09;5031862;28;20507;-65
2022/01/05 08:05:09;;;;;;;2.95;2.13;;;;;;;-10.39;91.54;98476.91;5031998;28;20046;-64
2022/01/05 08:07:36;;;;;;;4.18;2.20;;;;;;;-10.27;91.29;98476.81;5031844;28;20046;-65
2022/01/05 08:10:04;;;;;;;7.90;2.47;;;;;;;-10.32;90.57;98479.38;5032479;28;20049;-65
2022/01/05 08:12:31;;;;;;;3.97;2.30;;;;;;;-10.48;91.46;98472.81;5031981;28;20484;-65
2022/01/05 08:14:58;;;;;;;5.93;2.63;;;;;;;-10.57;92.73;98473.69;5031876;28;20057;-70
2022/01/05 08:17:25;;;;;;;4.35;2.35;;;;;;;-10.49;92.25;98476.16;5031925;28;20052;-68
2022/01/05 08:19:53;;;;;;;8.05;2.47;;;;;;;-10.52;92.48;98469.47;5032322;28;20057;-69
2022/01/05 08:22:20;;;;;;;4.43;2.80;;;;;;;-10.57;93.13;98463.63;5035608;28;20455;-67
2022/01/05 08:24:47;;;;;;;5.95;2.22;;;;;;;-10.34;92.75;98470.19;5035561;28;20407;-69
2022/01/05 08:27:14;;;;;;;5.38;2.97;;;;;;;-10.40;92.11;98471.06;5035701;28;20041;-69
2022/01/05 08:29:41;;;;;;;9.85;2.60;;;;;;;-10.39;92.90;98475.22;5035817;28;20107;-69
2022/01/05 08:32:08;;;;;;;5.55;2.67;;;;;;;-10.44;92.53;98471.09;5035824;28;20068;-65
2022/01/05 08:34:35;;;;;;;5.65;2.70;;;;;;;-10.37;92.19;98467.69;5035562;28;20492;-69
2022/01/05 08:37:04;;;;;;;4.18;2.50;;;;;;;-10.40;92.54;98462.66;5035943;28;20472;-68
2022/01/05 08:39:31;;;;;;;4.20;2.88;;;;;;;-10.17;91.24;98470.00;5035532;28;20576;-67
2022/01/05 08:41:58;;;;;;;3.75;2.78;;;;;;;-10.22;91.73;98466.69;5035483;28;20523;-68
2022/01/05 08:44:24;;;;;;;4.80;2.67;;;;;;;-10.19;91.86;98470.03;5047303;22;20049;-74
2022/01/05 08:46:51;;;;;;;3.65;2.35;;;;;;;-10.13;90.94;98464.94;5035457;28;20049;-74
2022/01/05 08:49:18;;;;;;;5.88;3.15;;;;;;;-9.99;90.90;98464.84;5035183;28;20055;-74
2022/01/05 08:51:45;;;;;;;5.13;2.70;;;;;;;-10.13;91.65;98472.47;5035230;28;20471;-73
2022/01/05 08:54:13;;;;;;;4.53;2.80;;;;;;;-10.21;91.63;98476.75;5034937;28;20046;-73
2022/01/05 08:56:40;;;;;;;5.20;2.25;;;;;;;-10.25;92.35;98480.13;5035262;28;20045;-75
2022/01/05 08:59:07;;;;;;;4.53;2.58;;;;;;;-10.17;92.03;98485.94;5035215;28;20041;-74
2022/01/05 09:01:34;;;;;;;4.18;2.50;;;;;;;-9.98;91.12;98479.06;5035215;28;20042;-76
2022/01/05 09:04:01;;;;;;;7.25;2.63;;;;;;;-9.69;90.15;98475.44;5034934;28;20056;-73
2022/01/05 09:06:28;;;;;;;3.63;2.60;;;;;;;-10.04;90.51;98481.66;5034932;28;20049;-74
2022/01/05 09:08:55;;;;;;;3.38;2.33;;;;;;;-10.08;90.69;98485.84;5034964;28;20488;-74
2022/01/05 09:11:23;;;;;;;5.75;2.15;;;;;;;-10.14;91.53;98485.91;5034860;28;20052;-74
2022/01/05 09:13:50;;;;;;;4.32;2.55;;;;;;;-9.90;90.42;98477.31;5034872;28;20060;-73
2022/01/05 09:16:17;;;;;;;3.08;2.42;;;;;;;-9.71;89.72;98483.03;5034744;28;20111;-76
2022/01/05 09:18:44;;;;;;;3.65;2.60;;;;;;;-9.93;90.05;98489.09;5034881;28;20060;-75
2022/01/05 09:21:11;;;;;;;6.72;2.67;;;;;;;-9.98;91.00;98485.78;5034952;28;20048;-74
2022/01/05 09:23:38;;;;;;;4.45;2.75;;;;;;;-9.98;90.73;98479.06;5034858;28;20057;-76
2022/01/05 09:26:05;;;;;;;5.53;2.45;;;;;;;-9.91;90.25;98485.72;5034775;28;20050;-75
2022/01/05 09:28:33;;;;;;;10.20;3.30;;;;;;;-9.95;91.17;98499.16;5034657;28;20140;-73
2022/01/05 09:31:00;;;;;;;3.75;2.45;;;;;;;-9.92;90.83;98495.78;5033869;28;20049;-74
2022/01/05 09:33:27;;;;;;;3.20;2.10;;;;;;;-9.67;90.57;98488.84;5034245;28;20049;-73
2022/01/05 09:36:03;;;;;;;7.47;2.92;;;;;;;-9.77;90.08;98485.56;5034667;28;20049;-73
2022/01/05 09:41:56;;;;;;;4.97;2.72;;;;;;;-9.81;90.29;98488.13;5034606;28;20068;-74
2022/01/05 09:44:11;;;;;;;6.35;2.70;;;;;;;-9.92;91.51;98495.78;5034672;28;20060;-75
2022/01/05 09:46:45;;;;;;;4.03;2.33;;;;;;;-10.04;91.76;98496.75;5034433;28;20049;-72
2022/01/05 09:49:14;;;;;;;3.70;2.42;;;;;;;-9.90;91.28;98496.63;5034091;28;20045;-74
2022/01/05 09:51:43;;;;;;;3.90;2.10;;;;;;;-9.77;90.67;98504.88;5034058;28;20050;-77
2022/01/05 09:54:12;;;;;;;4.97;2.67;;;;;;;-9.74;90.51;98502.34;5034170;28;20385;-76
2022/01/05 09:56:39;;;;;;;4.60;2.45;;;;;;;-9.82;90.39;98507.44;5034274;28;20141;-74
2022/01/05 09:59:06;;;;;;;3.78;2.53;;;;;;;-9.92;91.08;98495.78;5034171;28;20067;-76
2022/01/05 10:01:37;;;;;;;5.82;2.83;;;;;;;-9.83;91.21;98494.88;5034123;28;20415;-75
2022/01/05 10:04:05;;;;;;;6.05;2.75;;;;;;;-9.92;91.05;98496.63;5033731;28;20063;-75
2022/01/05 10:06:34;;;;;;;5.57;2.40;;;;;;;-9.89;91.42;98503.31;5034056;28;20060;-76
2022/01/05 10:09:01;;;;;;;4.78;2.80;;;;;;;-9.82;90.95;98504.91;5066566;22;20045;-76
2022/01/05 10:11:29;;;;;;;5.55;2.83;;;;;;;-9.71;90.81;98513.22;5033873;28;20046;-73
2022/01/05 10:13:56;;;;;;;4.13;2.65;;;;;;;-9.80;91.02;98513.28;5147059;22;20057;-76
2022/01/05 10:16:24;;;;;;;3.97;2.50;;;;;;;-9.80;91.16;98513.28;5033650;28;20050;-76
2022/01/05 10:18:52;;;;;;;;;;;;;;;-9.82;91.96;98516.66;5034078;28;20045;-73
2022/01/05 10:21:18;;;;;;;4.07;2.70;;;;;;;-9.64;90.71;98516.50;5033578;28;19921;-74
2022/01/05 10:23:47;;;;;;;4.00;2.40;;;;;;;-9.36;89.50;98524.63;5033595;28;20404;-75
2022/01/05 10:26:22;;;;;;;4.25;2.47;;;;;;;-9.32;89.13;98526.25;5033557;28;20049;-73
2022/01/05 10:28:49;;;;;;;6.70;2.58;;;;;;;-9.27;88.93;98533.78;5033314;28;20057;-73
2022/01/05 10:31:17;;;;;;;;;;;;;;;-9.37;89.36;98532.19;5033759;28;20045;-74
2022/01/05 10:33:44;;;;;;;5.88;2.90;;;;;;;-9.53;89.60;98528.97;5033358;28;20270;-76
2022/01/05 10:36:12;;;;;;;7.60;2.83;;;;;;;-9.60;90.02;98529.91;5033860;28;20049;-76
2022/01/05 10:38:41;;;;;;;5.28;3.05;;;;;;;-9.61;90.67;98528.22;5033355;28;20057;-73
2022/01/05 10:41:18;;;;;;;5.45;3.10;;;;;;;-9.78;90.71;98526.72;5033391;28;20373;-77
2022/01/05 10:44:03;;;;;;;;;;;;;;;-9.49;89.83;98528.09;5045432;22;20046;-63
2022/01/05 10:46:34;;;;;;;3.42;2.55;;;;;;;-9.41;89.39;98523.81;5033141;28;19928;-69
2022/01/05 10:49:03;;;;;;;4.70;2.33;;;;;;;-9.36;89.32;98517.06;5033134;28;20046;-65
2022/01/05 10:51:32;;;;;;;5.60;2.97;;;;;;;-9.26;89.40;98520.31;5032879;28;20045;-66
2022/01/05 10:54:16;;;;;;;4.82;2.88;;;;;;;-9.36;88.75;98522.09;5032782;28;20053;-68
2022/01/05 10:56:43;;;;;;;3.88;2.60;;;;;;;-9.29;89.60;98517.84;5031984;28;20046;-65
2022/01/05 10:59:10;;;;;;;6.20;2.72;;;;;;;-9.36;88.80;98516.22;5033118;28;20049;-70
2022/01/05 11:01:38;;;;;;;2.80;2.40;;;;;;;-9.26;88.67;98507.72;5032739;28;20487;-69
2022/01/05 11:04:19;;;;;;;3.75;2.60;;;;;;;-9.37;89.17;98507.03;5032508;28;20076;-67
2022/01/05 11:06:58;;;;;;;4.40;2.85;;;;;;;-9.52;89.61;98511.34;5032614;28;20502;-67
2022/01/05 11:09:26;;;;;;;6.43;2.58;;;;;;;-9.48;89.68;98513.00;5032565;28;20046;-68
2022/01/05 11:11:53;;;;;;;;;;;;;;;-9.52;90.01;98515.56;5033087;28;20041;-67
2022/01/05 11:14:22;;;;;;;4.03;2.17;;;;;;;-9.38;89.36;98516.22;5032428;28;19928;-70
2022/01/05 11:16:52;;;;;;;10.88;3.10;;;;;;;-9.42;89.76;98512.09;5032394;28;20053;-69
2022/01/05 11:19:21;;;;;;;5.25;2.80;;;;;;;-9.48;90.11;98517.19;5032500;28;20092;-67
2022/01/05 11:22:04;;;;;;;6.68;3.33;;;;;;;-9.52;90.34;98523.13;5032496;28;20058;-71
2022/01/05 11:24:33;;;;;;;6.53;3.10;;;;;;;-9.64;90.34;98529.91;5032470;28;20049;-70
2022/01/05 11:27:01;;;;;;;3.20;2.40;;;;;;;-9.52;90.18;98536.53;5032383;28;20045;-69
2022/01/05 11:29:29;;;;;;;4.32;2.85;;;;;;;-9.52;90.14;98528.16;5032301;28;20136;-69
2022/01/05 11:31:57;;;;;;;;;;;;;;;-9.43;89.50;98526.38;5032664;28;20439;-69
2022/01/05 11:34:27;;;;;;;6.93;2.70;;;;;;;-9.45;89.55;98529.75;5032064;28;19976;-69
2022/01/05 11:36:54;;;;;;;3.78;2.55;;;;;;;-9.55;90.30;98530.69;5032188;28;20499;-68
2022/01/05 11:39:22;;;;;;;4.63;2.47;;;;;;;-9.59;90.26;98524.84;5032313;28;20403;-69